createdAt,value
2019-01-25T00:00:25.286Z,54.77
2019-01-25T00:02:53.813Z,61.25
2019-01-25T00:05:22.657Z,56.05
2019-01-25T00:07:51.173Z,49.10
2019-01-25T00:10:19.665Z,57.10
2019-01-25T00:12:48.498Z,56.37
2019-01-25T00:15:17.265Z,60.73
2019-01-25T00:17:45.797Z,43.35
2019-01-25T00:20:14.770Z,37.28
2019-01-25T00:22:43.277Z,39.58
2019-01-25T00:25:12.355Z,43.42
2019-01-25T00:27:40.797Z,49.00
2019-01-25T00:30:14.769Z,53.35
2019-01-25T00:32:43.217Z,52.75
2019-01-25T00:35:12.234Z,56.23
2019-01-25T00:37:40.744Z,46.83
2019-01-25T00:40:12.753Z,52.33
2019-01-25T00:42:41.457Z,67.22
2019-01-25T00:45:11.473Z,46.85
2019-01-25T00:47:39.990Z,61.48
2019-01-25T00:50:17.133Z,44.93
2019-01-25T00:52:46.126Z,50.35
2019-01-25T00:55:14.709Z,53.75
2019-01-25T00:57:43.604Z,49.38
2019-01-25T01:00:21.496Z,43.23
2019-01-25T01:02:50.280Z,43.55
2019-01-25T01:05:19.544Z,38.67
2019-01-25T01:07:50.596Z,50.00
2019-01-25T01:10:19.838Z,45.67
2019-01-25T01:12:48.423Z,47.65
2019-01-25T01:15:17.289Z,49.50
2019-01-25T01:17:46.190Z,58.02
2019-01-25T01:20:20.048Z,60.78
2019-01-25T01:22:49.234Z,44.18
2019-01-25T01:25:18.000Z,40.98
2019-01-25T01:27:46.980Z,44.48
2019-01-25T01:30:23.595Z,53.50
2019-01-25T01:32:51.658Z,49.08
2019-01-25T01:35:20.173Z,48.68
2019-01-25T01:37:49.274Z,39.60
2019-01-25T01:40:22.100Z,43.80
2019-01-25T01:42:50.594Z,44.05
2019-01-25T01:45:19.705Z,48.45
2019-01-25T01:47:48.654Z,47.60
2019-01-25T01:50:20.308Z,54.42
2019-01-25T01:52:49.593Z,50.00
2019-01-25T01:55:18.602Z,56.48
2019-01-25T01:57:47.406Z,50.88
2019-01-25T02:00:23.901Z,50.50
2019-01-25T02:02:52.676Z,57.20
2019-01-25T02:05:23.035Z,46.55
2019-01-25T02:07:51.704Z,51.28
2019-01-25T02:10:29.273Z,45.15
2019-01-25T02:12:53.373Z,51.28
2019-01-25T02:15:23.050Z,42.48
2019-01-25T02:17:51.485Z,41.63
2019-01-25T02:20:25.193Z,39.10
2019-01-25T02:22:54.046Z,41.50
2019-01-25T02:25:22.805Z,40.35
2019-01-25T02:27:51.855Z,35.43
2019-01-25T02:30:23.029Z,43.80
2019-01-25T02:32:51.963Z,43.65
2019-01-25T02:35:20.469Z,37.03
2019-01-25T02:37:49.414Z,37.73
2019-01-25T02:40:20.558Z,42.53
2019-01-25T02:42:49.059Z,48.75
2019-01-25T02:45:18.064Z,48.42
2019-01-25T02:47:46.837Z,43.68
2019-01-25T02:50:17.711Z,44.75
2019-01-25T02:52:46.142Z,48.23
2019-01-25T02:55:15.834Z,45.58
2019-01-25T02:57:44.737Z,48.13
2019-01-25T03:00:20.972Z,38.55
2019-01-25T03:02:49.625Z,30.65
2019-01-25T03:05:19.905Z,44.23
2019-01-25T03:07:49.073Z,45.17
2019-01-25T03:10:19.101Z,32.58
2019-01-25T03:12:47.978Z,43.25
2019-01-25T03:15:19.117Z,49.10
2019-01-25T03:17:47.678Z,44.53
2019-01-25T03:20:18.310Z,39.03
2019-01-25T03:22:47.203Z,41.85
2019-01-25T03:25:18.181Z,40.28
2019-01-25T03:27:46.673Z,47.85
2019-01-25T03:30:20.309Z,43.85
2019-01-25T03:32:48.969Z,44.08
2019-01-25T03:35:19.945Z,53.60
2019-01-25T03:37:49.013Z,46.75
2019-01-25T03:40:23.027Z,43.10
2019-01-25T03:42:51.590Z,45.88
2019-01-25T03:45:21.650Z,55.20
2019-01-25T03:47:51.968Z,41.37
2019-01-25T03:50:26.891Z,53.60
2019-01-25T03:52:55.727Z,37.13
2019-01-25T03:55:24.802Z,42.90
2019-01-25T03:57:53.427Z,51.50
2019-01-25T04:00:26.546Z,48.45
2019-01-25T04:02:55.331Z,45.78
2019-01-25T04:05:24.013Z,50.20
2019-01-25T04:07:52.930Z,48.15
2019-01-25T04:10:26.564Z,52.05
2019-01-25T04:12:55.124Z,51.28
2019-01-25T04:15:26.471Z,49.77
2019-01-25T04:18:14.237Z,39.80
2019-01-25T04:20:42.681Z,49.70
2019-01-25T04:23:11.106Z,39.00
2019-01-25T04:25:39.828Z,44.08
2019-01-25T04:28:08.394Z,46.33
2019-01-25T04:30:37.000Z,45.58
2019-01-25T04:33:05.670Z,48.13
2019-01-25T04:35:35.460Z,52.75
2019-01-25T04:38:04.485Z,47.00
2019-01-25T04:40:33.278Z,50.05
2019-01-25T04:43:01.799Z,49.18
2019-01-25T04:45:30.548Z,40.52
2019-01-25T04:47:59.041Z,51.18
2019-01-25T04:50:28.018Z,44.98
2019-01-25T04:52:56.810Z,43.52
2019-01-25T04:55:27.324Z,52.98
2019-01-25T04:58:00.736Z,56.58
2019-01-25T05:00:29.178Z,54.15
2019-01-25T05:03:01.492Z,40.67
2019-01-25T05:05:30.481Z,52.95
2019-01-25T05:08:13.302Z,49.95
2019-01-25T05:10:42.120Z,45.12
2019-01-25T05:13:10.612Z,48.35
2019-01-25T05:15:39.038Z,41.75
2019-01-25T05:18:07.654Z,45.78
2019-01-25T05:20:36.079Z,51.88
2019-01-25T05:23:06.676Z,59.45
2019-01-25T05:25:35.431Z,55.12
2019-01-25T05:28:09.868Z,48.38
2019-01-25T05:30:38.465Z,54.33
2019-01-25T05:33:06.942Z,52.20
2019-01-25T05:35:36.896Z,59.13
2019-01-25T05:38:05.930Z,47.83
2019-01-25T05:40:34.846Z,50.35
2019-01-25T05:43:03.371Z,53.98
2019-01-25T05:45:31.798Z,52.48
2019-01-25T05:48:00.323Z,55.95
2019-01-25T05:50:28.849Z,41.75
2019-01-25T05:52:57.373Z,59.75
2019-01-25T05:55:25.877Z,42.05
2019-01-25T05:58:03.257Z,57.70
2019-01-25T06:00:36.115Z,52.98
2019-01-25T06:03:09.609Z,44.60
2019-01-25T06:05:38.180Z,52.40
2019-01-25T06:08:30.424Z,53.63
2019-01-25T06:11:19.713Z,46.05
2019-01-25T06:13:48.157Z,53.17
2019-01-25T06:16:16.821Z,43.28
2019-01-25T06:18:45.585Z,55.12
2019-01-25T06:21:14.766Z,49.77
2019-01-25T06:23:43.522Z,46.58
2019-01-25T06:26:13.890Z,47.95
2019-01-25T06:28:42.773Z,37.08
2019-01-25T06:31:11.469Z,50.50
2019-01-25T06:33:40.213Z,47.95
2019-01-25T06:36:09.165Z,53.20
2019-01-25T06:38:37.883Z,40.90
2019-01-25T06:41:06.769Z,48.92
2019-01-25T06:43:35.328Z,44.03
2019-01-25T06:46:04.275Z,55.85
2019-01-25T06:48:32.857Z,44.27
2019-01-25T06:51:01.429Z,40.40
2019-01-25T06:53:29.930Z,46.83
2019-01-25T06:55:58.393Z,47.70
2019-01-25T06:58:28.812Z,51.45
2019-01-25T07:00:59.244Z,45.67
2019-01-25T07:03:27.809Z,53.00
2019-01-25T07:05:56.253Z,50.90
2019-01-25T07:08:24.677Z,62.85
2019-01-25T07:10:53.121Z,54.98
2019-01-25T07:13:21.859Z,44.38
2019-01-25T07:15:50.646Z,48.45
2019-01-25T07:18:19.069Z,48.85
2019-01-25T07:20:47.516Z,47.08
2019-01-25T07:23:15.941Z,43.38
2019-01-25T07:25:44.409Z,37.08
2019-01-25T07:28:12.872Z,44.93
2019-01-25T07:30:41.654Z,52.88
2019-01-25T07:33:10.114Z,38.17
2019-01-25T07:35:38.903Z,45.92
2019-01-25T07:38:07.633Z,58.98
2019-01-25T07:40:36.146Z,48.80
2019-01-25T07:43:05.478Z,51.20
2019-01-25T07:45:34.297Z,51.65
2019-01-25T07:48:03.094Z,46.23
2019-01-25T07:50:32.295Z,45.73
2019-01-25T07:53:00.789Z,42.03
2019-01-25T07:55:30.630Z,43.00
2019-01-25T07:57:59.148Z,48.38
2019-01-25T08:00:27.948Z,49.58
2019-01-25T08:02:56.713Z,54.53
2019-01-25T08:05:25.218Z,53.10
2019-01-25T08:07:53.723Z,47.33
2019-01-25T08:10:23.129Z,47.62
2019-01-25T08:12:51.620Z,50.65
2019-01-25T08:15:25.773Z,47.45
2019-01-25T08:17:54.804Z,57.40
2019-01-25T08:20:23.716Z,43.80
2019-01-25T08:22:52.219Z,49.10
2019-01-25T08:25:20.990Z,49.70
2019-01-25T08:27:49.535Z,40.98
2019-01-25T08:30:25.125Z,43.25
2019-01-25T08:32:53.818Z,40.15
2019-01-25T08:35:22.420Z,41.20
2019-01-25T08:37:51.182Z,44.05
2019-01-25T08:40:19.897Z,47.08
2019-01-25T08:42:48.619Z,55.88
2019-01-25T08:45:19.339Z,54.40
2019-01-25T08:47:48.027Z,41.10
2019-01-25T08:50:20.034Z,39.38
2019-01-25T08:52:48.693Z,44.88
2019-01-25T08:55:17.299Z,44.00
2019-01-25T08:57:45.882Z,46.25
2019-01-25T09:00:20.454Z,56.42
2019-01-25T09:02:48.969Z,48.92
2019-01-25T09:05:18.340Z,39.85
2019-01-25T09:07:47.125Z,40.28
2019-01-25T09:10:20.939Z,49.33
2019-01-25T09:12:49.380Z,47.93
2019-01-25T09:15:23.542Z,45.23
2019-01-25T09:17:52.314Z,53.68
2019-01-25T09:20:22.353Z,41.10
2019-01-25T09:22:51.229Z,50.83
2019-01-25T09:25:20.117Z,48.35
2019-01-25T09:27:49.209Z,41.25
2019-01-25T09:30:23.296Z,63.80
2019-01-25T09:33:11.465Z,51.55
2019-01-25T09:35:40.154Z,52.08
2019-01-25T09:38:09.041Z,47.83
2019-01-25T09:40:37.469Z,47.35
2019-01-25T09:43:06.185Z,55.15
2019-01-25T09:45:34.781Z,56.33
2019-01-25T09:48:03.397Z,48.42
2019-01-25T09:50:31.824Z,69.37
2019-01-25T09:53:00.265Z,43.38
2019-01-25T09:55:28.705Z,49.77
2019-01-25T09:58:00.229Z,59.90
2019-01-25T10:00:34.395Z,49.50
2019-01-25T10:03:03.182Z,46.40
2019-01-25T10:05:31.891Z,44.67
2019-01-25T10:08:00.655Z,42.62
2019-01-25T10:10:29.665Z,41.18
2019-01-25T10:12:58.458Z,37.88
2019-01-25T10:15:29.075Z,41.58
2019-01-25T10:17:57.805Z,37.93
2019-01-25T10:20:26.601Z,40.00
2019-01-25T10:22:55.089Z,40.33
2019-01-25T10:25:23.698Z,44.53
2019-01-25T10:27:52.148Z,27.62
2019-01-25T10:30:23.825Z,44.70
2019-01-25T10:32:52.265Z,33.90
2019-01-25T10:35:21.434Z,29.90
2019-01-25T10:37:50.969Z,23.83
2019-01-25T10:40:21.101Z,29.35
2019-01-25T10:42:53.393Z,25.55
2019-01-25T10:45:29.813Z,30.30
2019-01-25T10:47:58.584Z,23.70
2019-01-25T10:50:27.364Z,29.50
2019-01-25T10:52:55.814Z,25.88
2019-01-25T10:55:24.316Z,26.93
2019-01-25T10:57:52.753Z,24.90
2019-01-25T11:00:23.065Z,29.75
2019-01-25T11:02:58.065Z,26.55
2019-01-25T11:05:27.694Z,23.98
2019-01-25T11:07:56.215Z,30.27
2019-01-25T11:10:24.786Z,34.43
2019-01-25T11:13:00.501Z,39.35
2019-01-25T11:15:24.889Z,28.87
2019-01-25T11:17:53.333Z,25.68
2019-01-25T11:20:23.957Z,28.60
2019-01-25T11:22:52.939Z,26.00
2019-01-25T11:25:27.042Z,22.60
2019-01-25T11:27:55.498Z,27.58
2019-01-25T11:30:24.305Z,30.08
2019-01-25T11:32:52.804Z,26.90
2019-01-25T11:35:21.742Z,22.70
2019-01-25T11:37:50.837Z,19.32
2019-01-25T11:40:25.385Z,20.82
2019-01-25T11:42:53.895Z,15.63
2019-01-25T11:45:23.047Z,17.85
2019-01-25T11:47:51.462Z,22.15
2019-01-25T11:50:21.344Z,18.50
2019-01-25T11:52:50.245Z,21.00
2019-01-25T11:55:19.678Z,18.50
2019-01-25T11:57:48.182Z,17.20
2019-01-25T12:00:22.606Z,15.58
2019-01-25T12:02:51.601Z,17.07
2019-01-25T12:05:21.984Z,17.48
2019-01-25T12:07:50.941Z,26.20
2019-01-25T12:10:22.374Z,29.42
2019-01-25T12:12:50.793Z,24.15
2019-01-25T12:15:19.381Z,23.60
2019-01-25T12:17:48.150Z,22.42
2019-01-25T12:20:25.974Z,25.23
2019-01-25T12:22:54.549Z,17.90
2019-01-25T12:25:23.134Z,24.92
2019-01-25T12:27:51.726Z,16.80
2019-01-25T12:30:23.565Z,19.75
2019-01-25T12:32:52.061Z,18.80
2019-01-25T12:35:20.505Z,25.00
2019-01-25T12:37:49.217Z,16.65
2019-01-25T12:40:19.733Z,30.88
2019-01-25T12:42:48.737Z,26.97
2019-01-25T12:45:31.465Z,26.73
2019-01-25T12:48:00.002Z,19.60
2019-01-25T12:50:50.142Z,20.08
2019-01-25T12:53:19.322Z,26.73
2019-01-25T12:55:47.834Z,25.88
2019-01-25T12:58:19.292Z,25.17
2019-01-25T13:00:49.376Z,22.40
2019-01-25T13:03:17.813Z,29.27
2019-01-25T13:05:46.438Z,26.57
2019-01-25T13:08:14.885Z,26.37
2019-01-25T13:10:43.449Z,25.25
2019-01-25T13:13:11.993Z,24.10
2019-01-25T13:15:40.590Z,29.75
2019-01-25T13:18:09.376Z,25.72
2019-01-25T13:20:39.594Z,20.72
2019-01-25T13:23:08.030Z,22.98
2019-01-25T13:25:36.541Z,27.25
2019-01-25T13:28:05.165Z,27.73
2019-01-25T13:30:33.841Z,22.60
2019-01-25T13:33:02.726Z,20.68
2019-01-25T13:35:31.709Z,22.70
2019-01-25T13:38:00.821Z,27.45
2019-01-25T13:40:29.622Z,23.40
2019-01-25T13:42:58.257Z,27.10
2019-01-25T13:45:27.741Z,32.42
2019-01-25T13:47:56.463Z,30.05
2019-01-25T13:50:29.354Z,28.50
2019-01-25T13:52:57.797Z,25.77
2019-01-25T13:55:48.197Z,25.57
2019-01-25T13:58:16.910Z,29.05
2019-01-25T14:00:45.608Z,21.10
2019-01-25T14:03:14.386Z,20.43
2019-01-25T14:05:42.846Z,23.80
2019-01-25T14:08:16.944Z,17.42
2019-01-25T14:10:45.530Z,21.07
2019-01-25T14:13:13.962Z,16.90
2019-01-25T14:15:42.789Z,24.18
2019-01-25T14:18:12.997Z,20.55
2019-01-25T14:20:41.537Z,24.63
2019-01-25T14:23:10.325Z,14.10
2019-01-25T14:25:38.753Z,23.55
2019-01-25T14:28:07.599Z,24.95
2019-01-25T14:30:38.560Z,24.67
2019-01-25T14:33:07.517Z,17.80
2019-01-25T14:35:36.197Z,20.40
2019-01-25T14:38:05.685Z,17.30
2019-01-25T14:40:34.269Z,24.60
2019-01-25T14:43:05.178Z,24.27
2019-01-25T14:45:33.465Z,29.85
2019-01-25T14:48:01.965Z,22.73
2019-01-25T14:50:32.151Z,20.95
2019-01-25T14:53:01.220Z,25.88
2019-01-25T14:55:29.656Z,23.45
2019-01-25T14:57:58.337Z,26.15
2019-01-25T15:00:30.248Z,22.87
2019-01-25T15:02:59.034Z,26.97
2019-01-25T15:05:27.849Z,19.90
2019-01-25T15:07:56.362Z,23.35
2019-01-25T15:10:25.626Z,24.27
2019-01-25T15:12:56.110Z,24.85
2019-01-25T15:15:26.807Z,25.40
2019-01-25T15:17:55.705Z,17.67
2019-01-25T15:20:26.457Z,28.85
2019-01-25T15:22:55.125Z,25.08
2019-01-25T15:25:23.623Z,30.95
2019-01-25T15:27:52.459Z,23.30
2019-01-25T15:30:23.611Z,25.25
2019-01-25T15:32:52.413Z,33.88
2019-01-25T15:35:21.987Z,27.52
2019-01-25T15:37:50.429Z,34.60
2019-01-25T15:40:20.725Z,22.75
2019-01-25T15:42:49.341Z,29.10
2019-01-25T15:45:20.203Z,25.90
2019-01-25T15:47:48.801Z,29.12
2019-01-25T15:50:19.881Z,30.65
2019-01-25T15:52:48.393Z,27.93
2019-01-25T15:55:17.558Z,33.60
2019-01-25T15:57:46.004Z,28.67
2019-01-25T16:00:17.090Z,32.83
2019-01-25T16:02:45.512Z,28.85
2019-01-25T16:05:16.646Z,36.83
2019-01-25T16:07:45.589Z,35.80
2019-01-25T16:10:16.560Z,29.98
2019-01-25T16:12:45.079Z,27.27
2019-01-25T16:15:15.967Z,30.17
2019-01-25T16:17:44.780Z,26.05
2019-01-25T16:20:15.157Z,28.67
2019-01-25T16:22:43.741Z,31.48
2019-01-25T16:25:14.811Z,30.72
2019-01-25T16:27:43.259Z,34.00
2019-01-25T16:30:14.812Z,36.40
2019-01-25T16:32:43.241Z,24.02
2019-01-25T16:35:12.321Z,33.20
2019-01-25T16:37:40.837Z,28.10
2019-01-25T16:40:12.345Z,37.53
2019-01-25T16:42:40.789Z,29.87
2019-01-25T16:45:12.309Z,31.70
2019-01-25T16:47:40.733Z,39.50
2019-01-25T16:50:10.727Z,34.30
2019-01-25T16:52:39.254Z,35.83
2019-01-25T16:55:15.989Z,31.12
2019-01-25T16:57:44.706Z,34.33
2019-01-25T17:00:16.214Z,39.78
2019-01-25T17:02:45.659Z,33.75
2019-01-25T17:05:14.794Z,33.83
2019-01-25T17:07:43.227Z,28.95
2019-01-25T17:10:13.591Z,31.82
2019-01-25T17:12:42.349Z,36.08
2019-01-25T17:15:12.027Z,30.65
2019-01-25T17:17:40.541Z,45.67
2019-01-25T17:20:17.625Z,35.10
2019-01-25T17:22:42.318Z,37.53
2019-01-25T17:25:15.089Z,26.15
2019-01-25T17:28:02.950Z,37.40
2019-01-25T17:30:36.438Z,26.23
2019-01-25T17:33:05.619Z,26.48
2019-01-25T17:35:34.059Z,35.28
2019-01-25T17:38:03.045Z,27.93
2019-01-25T17:40:37.389Z,35.35
2019-01-25T17:43:06.026Z,37.63
2019-01-25T17:45:34.527Z,34.45
2019-01-25T17:48:03.017Z,47.62
2019-01-25T17:50:31.761Z,30.80
2019-01-25T17:53:00.544Z,35.15
2019-01-25T17:55:29.345Z,34.95
2019-01-25T17:57:57.797Z,34.27
2019-01-25T18:00:33.370Z,31.40
2019-01-25T18:03:02.158Z,31.75
2019-01-25T18:05:30.669Z,33.80
2019-01-25T18:07:59.100Z,32.60
2019-01-25T18:10:29.309Z,39.13
2019-01-25T18:12:57.759Z,32.55
2019-01-25T18:15:26.251Z,31.15
2019-01-25T18:17:54.712Z,36.40
2019-01-25T18:20:24.285Z,35.28
2019-01-25T18:22:52.948Z,33.65
2019-01-25T18:25:30.556Z,34.50
2019-01-25T18:28:01.842Z,32.73
2019-01-25T18:30:39.045Z,37.03
2019-01-25T18:33:07.493Z,28.62
2019-01-25T18:35:35.921Z,43.73
2019-01-25T18:38:05.505Z,34.60
2019-01-25T18:40:34.246Z,31.52
2019-01-25T18:43:02.677Z,29.95
2019-01-25T18:45:31.419Z,30.55
2019-01-25T18:48:00.210Z,32.45
2019-01-25T18:50:28.994Z,36.13
2019-01-25T18:52:57.445Z,42.27
2019-01-25T18:55:26.437Z,32.25
2019-01-25T18:57:54.869Z,33.20
2019-01-25T19:00:23.583Z,31.25
2019-01-25T19:02:52.653Z,38.25
2019-01-25T19:05:21.434Z,33.50
2019-01-25T19:07:49.883Z,27.15
2019-01-25T19:10:21.658Z,29.10
2019-01-25T19:12:50.153Z,37.67
2019-01-25T19:15:27.658Z,36.65
2019-01-25T19:17:56.546Z,34.67
2019-01-25T19:20:25.810Z,37.13
2019-01-25T19:22:54.329Z,36.55
2019-01-25T19:25:23.222Z,29.70
2019-01-25T19:27:52.001Z,35.15
2019-01-25T19:30:26.414Z,40.83
2019-01-25T19:32:54.858Z,39.13
2019-01-25T19:35:23.349Z,40.70
2019-01-25T19:37:52.074Z,35.88
2019-01-25T19:40:23.631Z,25.17
2019-01-25T19:42:52.225Z,39.13
2019-01-25T19:45:21.080Z,31.00
2019-01-25T19:47:49.649Z,39.13
2019-01-25T19:50:19.815Z,34.38
2019-01-25T19:52:48.498Z,30.25
2019-01-25T19:55:22.614Z,28.17
2019-01-25T19:57:51.492Z,32.73
2019-01-25T20:00:25.793Z,38.58
2019-01-25T20:02:54.437Z,33.05
2019-01-25T20:05:25.369Z,27.40
2019-01-25T20:07:53.929Z,25.90
2019-01-25T20:10:22.717Z,39.35
2019-01-25T20:12:51.429Z,35.55
2019-01-25T20:15:22.057Z,29.77
2019-01-25T20:17:51.003Z,34.92
2019-01-25T20:20:22.050Z,28.07
2019-01-25T20:22:50.953Z,33.18
2019-01-25T20:25:19.734Z,35.63
2019-01-25T20:27:48.618Z,31.73
2019-01-25T20:30:25.777Z,40.38
2019-01-25T20:32:54.234Z,34.60
2019-01-25T20:35:25.606Z,32.45
2019-01-25T20:37:54.422Z,31.97
2019-01-25T20:40:23.229Z,31.60
2019-01-25T20:42:51.764Z,25.17
2019-01-25T20:45:31.576Z,33.20
2019-01-25T20:48:00.154Z,36.48
2019-01-25T20:52:55.865Z,32.85
2019-01-25T20:55:25.226Z,25.27
2019-01-25T20:57:54.185Z,22.35
2019-01-25T21:00:25.298Z,29.07
2019-01-25T21:02:54.081Z,30.97
2019-01-25T21:05:22.580Z,27.75
2019-01-25T21:07:51.021Z,32.25
2019-01-25T21:10:24.734Z,24.18
2019-01-25T21:12:54.482Z,31.05
2019-01-25T21:15:34.798Z,26.20
2019-01-25T21:17:58.386Z,24.98
2019-01-25T21:20:32.185Z,26.45
2019-01-25T21:23:00.708Z,24.52
2019-01-25T21:25:29.352Z,25.57
2019-01-25T21:27:58.153Z,23.62
2019-01-25T21:30:34.962Z,27.60
2019-01-25T21:33:03.641Z,26.85
2019-01-25T21:35:32.309Z,28.05
2019-01-25T21:38:00.855Z,24.57
2019-01-25T21:40:34.076Z,26.65
2019-01-25T21:43:03.178Z,26.07
2019-01-25T21:45:33.468Z,22.17
2019-01-25T21:48:04.746Z,26.50
2019-01-25T21:50:39.470Z,22.70
2019-01-25T21:53:08.157Z,27.62
2019-01-25T21:55:36.921Z,34.00
2019-01-25T21:58:06.172Z,24.10
2019-01-25T22:00:36.421Z,30.17
2019-01-25T22:03:05.693Z,21.17
2019-01-25T22:05:34.303Z,23.87
2019-01-25T22:08:02.980Z,18.80
2019-01-25T22:10:34.450Z,25.77
2019-01-25T22:13:03.033Z,21.23
2019-01-25T22:15:31.974Z,20.72
2019-01-25T22:18:00.465Z,18.75
2019-01-25T22:20:30.119Z,25.92
2019-01-25T22:22:58.896Z,26.70
2019-01-25T22:25:27.325Z,21.00
2019-01-25T22:27:56.833Z,22.82
2019-01-25T22:30:27.541Z,20.00
2019-01-25T22:32:57.647Z,21.90
2019-01-25T22:35:27.039Z,19.05
2019-01-25T22:37:56.514Z,19.30
2019-01-25T22:40:30.032Z,20.88
2019-01-25T22:42:58.805Z,21.97
2019-01-25T22:45:29.313Z,23.15
2019-01-25T22:47:58.893Z,20.50
2019-01-25T22:50:29.653Z,18.35
2019-01-25T22:52:58.279Z,17.10
2019-01-25T22:55:27.166Z,20.75
2019-01-25T22:57:56.040Z,22.30
2019-01-25T23:00:50.629Z,22.40
2019-01-25T23:03:22.198Z,22.90
2019-01-25T23:06:06.014Z,20.88
2019-01-25T23:08:34.518Z,25.48
2019-01-25T23:11:03.086Z,16.42
2019-01-25T23:13:31.902Z,22.62
2019-01-25T23:16:06.299Z,19.92
2019-01-25T23:18:30.848Z,26.17
2019-01-25T23:20:59.582Z,24.43
2019-01-25T23:23:28.020Z,20.30
2019-01-25T23:25:56.445Z,24.30
2019-01-25T23:28:24.889Z,17.70
2019-01-25T23:30:53.333Z,18.05
2019-01-25T23:33:22.069Z,20.68
2019-01-25T23:35:50.875Z,15.43
2019-01-25T23:38:19.374Z,22.48
2019-01-25T23:40:47.802Z,22.10
2019-01-25T23:43:16.241Z,17.77
2019-01-25T23:45:44.685Z,18.73
2019-01-25T23:48:13.470Z,11.97
2019-01-25T23:50:41.913Z,17.10
2019-01-25T23:53:10.427Z,17.90
2019-01-25T23:55:38.845Z,17.75
2019-01-25T23:58:07.617Z,15.28
